Time;durP1;ratioP1;P1;durP2;ratioP2;P2;SDS_P1;SDS_P2;PMS_P1;PMS_P2;Temp;Humidity;BMP_temperature;BMP_pressure;BME280_temperature;BME280_humidity;BME280_pressure;Samples;Min_cycle;Max_cycle;Signal;HPM_P1;HPM_P2
2023/04/24 00:01:00;;;;;;;0.40;0.17;;;;;;;;;;5069414;28;20040;-76
2023/04/24 00:03:27;;;;;;;0.68;0.20;;;;;;;;;;5069615;28;20123;-77
2023/04/24 00:05:54;;;;;;;1.10;0.25;;;;;;;;;;5088712;28;20033;-76
2023/04/24 00:08:21;;;;;;;0.10;0.10;;;;;;;;;;5088085;28;20136;-76
2023/04/24 00:10:47;;;;;;;2.30;0.73;;;;;;;;;;5070066;28;20081;-77
2023/04/24 00:13:13;;;;;;;0.20;0.20;;;;;;;;;;5071971;28;20234;-75
2023/04/24 00:15:41;;;;;;;0.65;0.20;;;;;;;;;;5091561;28;20055;-77
2023/04/24 00:18:07;;;;;;;0.30;0.30;;;;;;;;;;5090209;28;20103;-76
2023/04/24 00:20:35;;;;;;;1.77;0.57;;;;;;;;;;5089129;28;20138;-76
2023/04/24 00:23:01;;;;;;;0.52;0.20;;;;;;;;;;5090586;28;20565;-77
2023/04/24 00:25:27;;;;;;;0.73;0.60;;;;;;;;;;5069657;28;20032;-77
2023/04/24 00:27:53;;;;;;;2.17;0.10;;;;;;;;;;5071505;28;20028;-77
2023/04/24 00:30:19;;;;;;;0.20;0.20;;;;;;;;;;5069847;28;20137;-76
2023/04/24 00:32:45;;;;;;;0.50;0.30;;;;;;;;;;5069190;28;20032;-76
2023/04/24 00:35:11;;;;;;;0.80;0.15;;;;;;;;;;5070111;28;20044;-75
2023/04/24 00:37:37;;;;;;;0.20;0.20;;;;;;;;;;5072297;28;20095;-76
2023/04/24 00:40:03;;;;;;;2.35;0.30;;;;;;;;;;5071036;28;20439;-75
2023/04/24 00:42:29;;;;;;;0.20;0.20;;;;;;;;;;5071053;28;20111;-77
2023/04/24 00:44:57;;;;;;;0.30;0.30;;;;;;;;;;5069975;28;20024;-76
2023/04/24 00:47:23;;;;;;;0.13;0.10;;;;;;;;;;5069084;28;20036;-76
2023/04/24 00:49:49;;;;;;;0.30;0.30;;;;;;;;;;5082711;28;20016;-76
2023/04/24 00:52:17;;;;;;;1.95;0.30;;;;;;;;;;5091467;28;20435;-75
2023/04/24 00:54:45;;;;;;;0.35;0.20;;;;;;;;;;5090987;28;20020;-75
2023/04/24 00:57:11;;;;;;;1.88;0.32;;;;;;;;;;5091017;28;20468;-75
2023/04/24 00:59:37;;;;;;;0.45;0.35;;;;;;;;;;5091486;28;20066;-76
2023/04/24 01:02:03;;;;;;;3.42;0.70;;;;;;;;;;5085232;28;20040;-78
2023/04/24 01:04:29;;;;;;;0.30;0.20;;;;;;;;;;5103505;28;20483;-75
2023/04/24 01:06:55;;;;;;;0.28;0.20;;;;;;;;;;5090675;28;20070;-75
2023/04/24 01:09:22;;;;;;;2.08;0.70;;;;;;;;;;5085869;28;20032;-75
2023/04/24 01:11:48;;;;;;;0.47;0.40;;;;;;;;;;5088658;28;20042;-75
2023/04/24 01:14:14;;;;;;;0.22;0.22;;;;;;;;;;5088537;28;20019;-74
2023/04/24 01:16:41;;;;;;;0.88;0.60;;;;;;;;;;5087109;28;20012;-74
2023/04/24 01:19:07;;;;;;;0.65;0.30;;;;;;;;;;5089295;28;20069;-75
2023/04/24 01:21:37;;;;;;;0.85;0.55;;;;;;;;;;5087446;28;20500;-75
2023/04/24 01:24:02;;;;;;;;;;;;;;;;;;5085952;28;20405;-75
2023/04/24 01:26:28;;;;;;;0.35;0.20;;;;;;;;;;5087984;28;19915;-75
2023/04/24 01:28:55;;;;;;;0.32;0.30;;;;;;;;;;5089833;28;20028;-75
2023/04/24 01:31:21;;;;;;;0.50;0.50;;;;;;;;;;5088194;28;20596;-74
2023/04/24 01:33:47;;;;;;;0.77;0.10;;;;;;;;;;5089968;28;20059;-75
2023/04/24 01:36:14;;;;;;;1.88;0.50;;;;;;;;;;5089869;28;20043;-75
2023/04/24 01:38:40;;;;;;;0.45;0.40;;;;;;;;;;5090792;28;20039;-76
2023/04/24 01:41:06;;;;;;;0.73;0.30;;;;;;;;;;5089867;28;20032;-76
2023/04/24 01:43:32;;;;;;;1.70;0.50;;;;;;;;;;5088939;28;20044;-76
2023/04/24 01:45:58;;;;;;;1.77;0.40;;;;;;;;;;5086794;28;20051;-77
2023/04/24 01:48:24;;;;;;;0.30;0.30;;;;;;;;;;5071714;28;20031;-77
2023/04/24 01:50:50;;;;;;;4.45;0.40;;;;;;;;;;5080624;28;20028;-77
2023/04/24 01:53:16;;;;;;;0.68;0.52;;;;;;;;;;5089638;28;20060;-76
2023/04/24 01:55:43;;;;;;;0.20;0.20;;;;;;;;;;5088772;28;20031;-76
2023/04/24 01:58:09;;;;;;;3.72;0.88;;;;;;;;;;5086399;28;20020;-77
2023/04/24 02:00:35;;;;;;;0.73;0.50;;;;;;;;;;5087388;28;20024;-77
2023/04/24 02:03:01;;;;;;;0.68;0.68;;;;;;;;;;5090232;28;20031;-76
2023/04/24 02:05:27;;;;;;;0.75;0.63;;;;;;;;;;5090455;28;20016;-75
2023/04/24 02:07:53;;;;;;;1.98;0.55;;;;;;;;;;5089720;28;20024;-75
2023/04/24 02:10:19;;;;;;;3.92;0.32;;;;;;;;;;5089626;28;20027;-74
2023/04/24 02:12:45;;;;;;;0.47;0.47;;;;;;;;;;5088333;28;20123;-75
2023/04/24 02:15:12;;;;;;;1.05;0.30;;;;;;;;;;5089710;28;20021;-74
2023/04/24 02:17:38;;;;;;;0.40;0.40;;;;;;;;;;5089930;28;20103;-74
2023/04/24 02:20:05;;;;;;;2.40;0.40;;;;;;;;;;5088200;28;20383;-74
2023/04/24 02:22:31;;;;;;;1.25;0.28;;;;;;;;;;5090830;28;20055;-75
2023/04/24 02:24:57;;;;;;;1.17;0.30;;;;;;;;;;5091299;28;20492;-74
2023/04/24 02:27:23;;;;;;;0.93;0.22;;;;;;;;;;5091124;28;20054;-74
2023/04/24 02:29:49;;;;;;;0.75;0.47;;;;;;;;;;5090726;28;20020;-74
2023/04/24 02:32:15;;;;;;;0.70;0.63;;;;;;;;;;5091278;28;20035;-74
2023/04/24 02:34:41;;;;;;;1.30;0.30;;;;;;;;;;5091532;28;20100;-74
2023/04/24 02:37:07;;;;;;;0.55;0.30;;;;;;;;;;5089784;28;20023;-75
2023/04/24 02:39:33;;;;;;;3.28;0.45;;;;;;;;;;5090635;28;20157;-74
2023/04/24 02:42:00;;;;;;;0.60;0.60;;;;;;;;;;5089547;28;20036;-74
2023/04/24 02:44:26;;;;;;;1.08;0.20;;;;;;;;;;5089897;28;20487;-74
2023/04/24 02:46:52;;;;;;;0.50;0.35;;;;;;;;;;5091941;28;20396;-74
2023/04/24 02:49:18;;;;;;;0.90;0.30;;;;;;;;;;5091632;28;20464;-74
2023/04/24 02:51:44;;;;;;;2.70;0.40;;;;;;;;;;5090958;28;20112;-75
2023/04/24 02:54:10;;;;;;;0.73;0.35;;;;;;;;;;5090835;28;20024;-75
2023/04/24 02:56:36;;;;;;;0.55;0.50;;;;;;;;;;5089821;28;20035;-74
2023/04/24 02:59:02;;;;;;;2.03;0.85;;;;;;;;;;5088578;28;20064;-75
2023/04/24 03:01:28;;;;;;;4.05;1.00;;;;;;;;;;5089193;28;20392;-74
2023/04/24 03:03:54;;;;;;;2.50;0.63;;;;;;;;;;5092741;28;20089;-75
2023/04/24 03:06:21;;;;;;;0.50;0.40;;;;;;;;;;5111269;28;20034;-74
2023/04/24 03:08:47;;;;;;;0.30;0.30;;;;;;;;;;5111180;28;20072;-73
2023/04/24 03:11:13;;;;;;;1.90;0.63;;;;;;;;;;5111643;28;20028;-73
2023/04/24 03:13:39;;;;;;;0.55;0.40;;;;;;;;;;5109045;28;20024;-73
2023/04/24 03:16:05;;;;;;;0.80;0.55;;;;;;;;;;5111547;28;20019;-75
2023/04/24 03:18:31;;;;;;;1.42;1.33;;;;;;;;;;5112494;28;20365;-76
2023/04/24 03:20:57;;;;;;;2.70;0.43;;;;;;;;;;5116382;28;20051;-75
2023/04/24 03:23:23;;;;;;;0.30;0.30;;;;;;;;;;5118312;28;20026;-75
2023/04/24 03:25:49;;;;;;;0.45;0.40;;;;;;;;;;5117395;28;20024;-76
2023/04/24 03:28:15;;;;;;;0.40;0.40;;;;;;;;;;5115287;28;20126;-75
2023/04/24 03:30:41;;;;;;;1.88;0.60;;;;;;;;;;5115493;28;20038;-75
2023/04/24 03:33:07;;;;;;;0.57;0.50;;;;;;;;;;5117130;28;20102;-75
2023/04/24 03:35:34;;;;;;;1.10;0.85;;;;;;;;;;5115939;28;20024;-75
2023/04/24 03:38:00;;;;;;;0.80;0.70;;;;;;;;;;5118226;28;20024;-76
2023/04/24 03:40:26;;;;;;;1.73;0.95;;;;;;;;;;5117497;28;20023;-75
2023/04/24 03:42:52;;;;;;;0.52;0.52;;;;;;;;;;5116375;28;20032;-75
2023/04/24 03:45:18;;;;;;;1.05;0.73;;;;;;;;;;5115045;28;20417;-75
2023/04/24 03:47:44;;;;;;;2.92;0.80;;;;;;;;;;5116719;28;20085;-75
2023/04/24 03:50:10;;;;;;;1.98;0.98;;;;;;;;;;5113332;28;20077;-75
2023/04/24 03:52:36;;;;;;;5.13;0.77;;;;;;;;;;5114872;28;20019;-75
2023/04/24 03:55:02;;;;;;;1.15;0.93;;;;;;;;;;5092722;28;20599;-75
2023/04/24 03:57:28;;;;;;;0.80;0.80;;;;;;;;;;5087550;28;20032;-75
2023/04/24 03:59:55;;;;;;;0.82;0.82;;;;;;;;;;5070911;28;20024;-75
2023/04/24 04:02:21;;;;;;;0.90;0.90;;;;;;;;;;5086968;28;20039;-75
2023/04/24 04:04:46;;;;;;;0.98;0.80;;;;;;;;;;5086882;28;20021;-75
2023/04/24 04:07:12;;;;;;;1.40;1.13;;;;;;;;;;5071382;28;20028;-75
2023/04/24 04:09:38;;;;;;;1.13;0.90;;;;;;;;;;5086707;28;20484;-75
2023/04/24 04:12:05;;;;;;;1.40;0.90;;;;;;;;;;5091591;28;20044;-75
2023/04/24 04:14:31;;;;;;;2.00;1.10;;;;;;;;;;5091729;28;20510;-76
2023/04/24 04:16:57;;;;;;;1.77;1.10;;;;;;;;;;5093324;28;20472;-75
2023/04/24 04:19:23;;;;;;;1.35;1.05;;;;;;;;;;5092699;28;20027;-75
2023/04/24 04:21:53;;;;;;;2.75;1.42;;;;;;;;;;5090479;28;20082;-75
2023/04/24 04:24:23;;;;;;;1.33;1.23;;;;;;;;;;5092330;28;20036;-75
2023/04/24 04:26:51;;;;;;;3.00;2.03;;;;;;;;;;5091898;28;20119;-75
2023/04/24 04:29:18;;;;;;;1.98;1.30;;;;;;;;;;5091856;28;20027;-76
2023/04/24 04:31:44;;;;;;;3.22;1.73;;;;;;;;;;5092846;28;20038;-76
2023/04/24 04:34:11;;;;;;;1.25;1.15;;;;;;;;;;5093906;28;20024;-76
2023/04/24 04:36:39;;;;;;;1.50;1.20;;;;;;;;;;5093245;28;20012;-76
2023/04/24 04:39:05;;;;;;;2.13;1.38;;;;;;;;;;5094424;28;20031;-76
2023/04/24 04:41:32;;;;;;;5.05;1.42;;;;;;;;;;5092676;28;20028;-76
2023/04/24 04:43:58;;;;;;;1.58;1.45;;;;;;;;;;5092843;28;20043;-75
2023/04/24 04:46:25;;;;;;;1.38;1.27;;;;;;;;;;5093172;28;20025;-75
2023/04/24 04:48:52;;;;;;;1.38;1.27;;;;;;;;;;5092305;28;20481;-75
2023/04/24 04:51:18;;;;;;;1.98;1.73;;;;;;;;;;5096116;28;20032;-75
2023/04/24 04:53:44;;;;;;;1.80;1.58;;;;;;;;;;5094677;28;20039;-75
2023/04/24 04:56:10;;;;;;;1.70;1.60;;;;;;;;;;5092591;28;20465;-75
2023/04/24 04:58:36;;;;;;;1.67;1.48;;;;;;;;;;5093527;28;20105;-75
2023/04/24 05:01:02;;;;;;;4.35;1.52;;;;;;;;;;5092081;28;20032;-75
2023/04/24 05:03:28;;;;;;;2.58;1.80;;;;;;;;;;5090771;28;20063;-75
2023/04/24 05:05:54;;;;;;;1.15;1.13;;;;;;;;;;5108219;28;20028;-75
2023/04/24 05:08:20;;;;;;;1.98;1.85;;;;;;;;;;5092941;28;20020;-76
2023/04/24 05:10:46;;;;;;;1.65;1.55;;;;;;;;;;5093241;28;20024;-75
2023/04/24 05:13:12;;;;;;;7.28;1.60;;;;;;;;;;5095365;28;20015;-75
2023/04/24 05:15:39;;;;;;;1.80;1.70;;;;;;;;;;5092938;28;20031;-76
2023/04/24 05:18:05;;;;;;;3.47;1.58;;;;;;;;;;5094696;28;20021;-75
2023/04/24 05:20:31;;;;;;;1.50;1.40;;;;;;;;;;5093634;28;20051;-76
2023/04/24 05:22:57;;;;;;;5.75;1.88;;;;;;;;;;5095935;28;20046;-75
2023/04/24 05:25:23;;;;;;;1.98;1.88;;;;;;;;;;5094020;28;20051;-75
2023/04/24 05:27:49;;;;;;;1.85;1.70;;;;;;;;;;5092272;28;20513;-75
2023/04/24 05:30:15;;;;;;;1.23;1.05;;;;;;;;;;5093274;28;20072;-75
2023/04/24 05:32:41;;;;;;;1.48;1.38;;;;;;;;;;5092342;28;20273;-75
2023/04/24 05:35:07;;;;;;;1.67;1.58;;;;;;;;;;5093923;28;20590;-75
2023/04/24 05:37:33;;;;;;;2.90;1.45;;;;;;;;;;5095436;28;20522;-75
2023/04/24 05:39:59;;;;;;;1.20;1.10;;;;;;;;;;5091221;28;20032;-75
2023/04/24 05:42:25;;;;;;;2.70;1.10;;;;;;;;;;5094973;28;20046;-75
2023/04/24 05:44:53;;;;;;;4.05;1.42;;;;;;;;;;5095248;28;20105;-75
2023/04/24 05:47:21;;;;;;;5.75;2.10;;;;;;;;;;5092844;28;20149;-76
2023/04/24 05:49:47;;;;;;;1.65;0.90;;;;;;;;;;5092970;28;20036;-75
2023/04/24 05:52:13;;;;;;;1.52;1.40;;;;;;;;;;5090959;28;20027;-76
2023/04/24 05:54:42;;;;;;;1.35;1.23;;;;;;;;;;5091052;28;20476;-76
2023/04/24 05:57:08;;;;;;;1.70;1.30;;;;;;;;;;5092199;28;20028;-76
2023/04/24 05:59:34;;;;;;;1.38;1.27;;;;;;;;;;5093019;28;20027;-76
2023/04/24 06:02:00;;;;;;;1.63;1.52;;;;;;;;;;5097197;28;20531;-77
2023/04/24 06:04:27;;;;;;;6.00;1.55;;;;;;;;;;5095547;28;20024;-77
2023/04/24 06:06:55;;;;;;;6.38;1.50;;;;;;;;;;5093071;28;20112;-77
2023/04/24 06:09:22;;;;;;;4.97;2.03;;;;;;;;;;5090182;28;20499;-76
2023/04/24 06:11:48;;;;;;;2.13;1.23;;;;;;;;;;5091982;28;20435;-77
2023/04/24 06:14:14;;;;;;;1.10;0.98;;;;;;;;;;5090965;28;20054;-76
2023/04/24 06:16:42;;;;;;;1.48;1.10;;;;;;;;;;5090261;28;20032;-77
2023/04/24 06:19:09;;;;;;;2.80;1.27;;;;;;;;;;5090790;28;20106;-75
2023/04/24 06:21:34;;;;;;;1.33;1.00;;;;;;;;;;5091864;28;20043;-76
2023/04/24 06:24:00;;;;;;;4.00;2.00;;;;;;;;;;5092094;28;20074;-74
2023/04/24 06:26:26;;;;;;;1.65;1.55;;;;;;;;;;5091974;28;20028;-74
2023/04/24 06:28:58;;;;;;;1.88;1.35;;;;;;;;;;5089858;28;20040;-75
2023/04/24 06:31:24;;;;;;;1.73;1.60;;;;;;;;;;5091328;28;20093;-75
2023/04/24 06:33:50;;;;;;;4.60;1.48;;;;;;;;;;5090013;28;20057;-75
2023/04/24 06:36:16;;;;;;;5.45;1.70;;;;;;;;;;5092598;28;20438;-75
2023/04/24 06:38:42;;;;;;;7.85;2.30;;;;;;;;;;5086850;28;20028;-75
2023/04/24 06:41:08;;;;;;;8.10;2.55;;;;;;;;;;5070203;28;20024;-74
2023/04/24 06:43:34;;;;;;;3.45;1.52;;;;;;;;;;5070788;28;20481;-75
2023/04/24 06:46:00;;;;;;;2.90;1.80;;;;;;;;;;5069979;28;20182;-75
2023/04/24 06:48:26;;;;;;;3.72;2.22;;;;;;;;;;5070798;28;20024;-75
2023/04/24 06:50:52;;;;;;;8.05;2.80;;;;;;;;;;5070800;28;20111;-75
2023/04/24 06:53:18;;;;;;;1.90;1.33;;;;;;;;;;5071880;28;20055;-75
2023/04/24 06:55:45;;;;;;;4.20;2.33;;;;;;;;;;5076419;28;20021;-75
2023/04/24 06:58:12;;;;;;;3.17;1.80;;;;;;;;;;5075890;28;20060;-75
2023/04/24 07:00:38;;;;;;;5.90;1.65;;;;;;;;;;5095108;28;20020;-75
2023/04/24 07:03:05;;;;;;;1.50;1.40;;;;;;;;;;5093644;28;20118;-76
2023/04/24 07:05:33;;;;;;;2.05;1.40;;;;;;;;;;5094113;28;20107;-75
2023/04/24 07:08:00;;;;;;;4.20;2.35;;;;;;;;;;5093238;28;20035;-76
2023/04/24 07:10:28;;;;;;;2.10;1.85;;;;;;;;;;5092342;28;20115;-75
2023/04/24 07:12:56;;;;;;;3.30;2.40;;;;;;;;;;5093118;28;20028;-77
2023/04/24 07:15:22;;;;;;;5.60;2.00;;;;;;;;;;5082941;28;20421;-76
2023/04/24 07:17:48;;;;;;;5.65;1.77;;;;;;;;;;5091667;28;20031;-76
2023/04/24 07:20:14;;;;;;;2.33;1.55;;;;;;;;;;5091248;28;20454;-76
2023/04/24 07:22:40;;;;;;;2.33;1.70;;;;;;;;;;5092343;28;20488;-76
2023/04/24 07:25:07;;;;;;;1.17;1.17;;;;;;;;;;5094024;28;20024;-76
2023/04/24 07:27:33;;;;;;;2.92;1.80;;;;;;;;;;5091126;28;20039;-78
2023/04/24 07:29:59;;;;;;;1.70;1.60;;;;;;;;;;5091827;28;20028;-77
2023/04/24 07:32:25;;;;;;;5.70;2.17;;;;;;;;;;5084733;28;20047;-77
2023/04/24 07:34:51;;;;;;;4.53;1.40;;;;;;;;;;5069962;28;20016;-76
2023/04/24 07:37:17;;;;;;;3.72;2.53;;;;;;;;;;5069267;28;20230;-76
2023/04/24 07:39:43;;;;;;;4.18;1.65;;;;;;;;;;5072217;28;20031;-76
2023/04/24 07:42:09;;;;;;;3.70;1.52;;;;;;;;;;5073038;28;20255;-76
2023/04/24 07:44:36;;;;;;;4.72;1.90;;;;;;;;;;5068748;28;20025;-76
2023/04/24 07:47:02;;;;;;;1.58;1.42;;;;;;;;;;5070855;28;20036;-77
2023/04/24 07:49:28;;;;;;;3.08;1.52;;;;;;;;;;5072204;28;20024;-76
2023/04/24 07:51:54;;;;;;;1.88;1.75;;;;;;;;;;5072793;28;20139;-77
2023/04/24 07:54:20;;;;;;;1.20;1.20;;;;;;;;;;5072137;28;20281;-77
2023/04/24 07:56:46;;;;;;;3.20;1.20;;;;;;;;;;5072106;28;20020;-78
2023/04/24 07:59:12;;;;;;;4.53;2.35;;;;;;;;;;5068848;28;20466;-78
2023/04/24 08:01:41;;;;;;;2.38;1.33;;;;;;;;;;5072931;28;20460;-76
2023/04/24 08:04:07;;;;;;;5.50;1.58;;;;;;;;;;5072952;28;20033;-76
2023/04/24 08:06:33;;;;;;;5.43;1.65;;;;;;;;;;5071662;28;20034;-76
2023/04/24 08:09:00;;;;;;;6.72;1.38;;;;;;;;;;5076561;28;20024;-77
2023/04/24 08:11:26;;;;;;;1.65;1.13;;;;;;;;;;5090705;28;20030;-76
2023/04/24 08:13:52;;;;;;;1.00;1.00;;;;;;;;;;5090768;28;20103;-76
2023/04/24 08:16:18;;;;;;;1.98;1.30;;;;;;;;;;5089062;28;20613;-77
2023/04/24 08:18:45;;;;;;;1.75;1.17;;;;;;;;;;5096887;28;20027;-77
2023/04/24 08:21:12;;;;;;;4.47;1.73;;;;;;;;;;5089177;28;20119;-76
2023/04/24 08:23:38;;;;;;;4.10;1.10;;;;;;;;;;5089585;28;20024;-77
2023/04/24 08:26:07;;;;;;;3.53;1.35;;;;;;;;;;5089349;28;20035;-77
2023/04/24 08:28:33;;;;;;;0.95;0.80;;;;;;;;;;5089272;28;20032;-77
2023/04/24 08:30:59;;;;;;;2.95;1.20;;;;;;;;;;5089467;28;20032;-76
2023/04/24 08:33:25;;;;;;;1.55;1.25;;;;;;;;;;5090853;28;20027;-76
2023/04/24 08:35:51;;;;;;;2.47;1.20;;;;;;;;;;5089525;28;20028;-77
2023/04/24 08:38:17;;;;;;;2.47;1.65;;;;;;;;;;5089357;28;20039;-76
2023/04/24 08:40:45;;;;;;;8.95;2.08;;;;;;;;;;5091808;28;20495;-76
2023/04/24 08:43:13;;;;;;;2.20;1.73;;;;;;;;;;5085621;28;20894;-76
2023/04/24 08:45:42;;;;;;;1.55;1.30;;;;;;;;;;5087821;28;20009;-77
2023/04/24 08:48:10;;;;;;;4.30;1.85;;;;;;;;;;5090665;28;20051;-77
2023/04/24 08:50:37;;;;;;;2.03;1.48;;;;;;;;;;5090258;28;20052;-76
2023/04/24 08:53:04;;;;;;;4.82;1.10;;;;;;;;;;5094462;28;20071;-76
2023/04/24 08:55:31;;;;;;;4.03;1.40;;;;;;;;;;5090239;28;20028;-80
2023/04/24 08:57:57;;;;;;;2.95;1.63;;;;;;;;;;5091046;28;20027;-77
2023/04/24 09:00:26;;;;;;;6.38;1.50;;;;;;;;;;5092669;28;20020;-79
2023/04/24 09:02:54;;;;;;;5.18;1.50;;;;;;;;;;5091622;28;20028;-77
2023/04/24 09:05:21;;;;;;;6.90;1.98;;;;;;;;;;5093928;28;20107;-76
2023/04/24 09:07:51;;;;;;;4.43;1.35;;;;;;;;;;5068242;28;20503;-77
2023/04/24 09:10:17;;;;;;;2.28;1.50;;;;;;;;;;5085406;28;20093;-76
2023/04/24 09:12:44;;;;;;;1.23;1.20;;;;;;;;;;5090037;28;20020;-75
2023/04/24 09:15:11;;;;;;;1.83;1.70;;;;;;;;;;5090520;28;20562;-76
2023/04/24 09:17:37;;;;;;;2.15;1.65;;;;;;;;;;5090996;28;20541;-75
2023/04/24 09:20:04;;;;;;;4.25;1.30;;;;;;;;;;5091589;28;20499;-77
2023/04/24 09:22:30;;;;;;;2.97;1.73;;;;;;;;;;5090893;28;20032;-75
2023/04/24 09:25:07;;;;;;;3.03;1.80;;;;;;;;;;5092491;28;20024;-76
2023/04/24 09:27:33;;;;;;;4.75;1.55;;;;;;;;;;5087783;28;20399;-76
2023/04/24 09:29:59;;;;;;;2.58;1.60;;;;;;;;;;5090854;28;20035;-76
2023/04/24 09:32:26;;;;;;;3.10;1.38;;;;;;;;;;5092995;28;20057;-76
2023/04/24 09:35:11;;;;;;;2.55;1.50;;;;;;;;;;5092835;28;20050;-77
2023/04/24 09:37:38;;;;;;;4.00;1.33;;;;;;;;;;5090419;28;20054;-76
2023/04/24 09:40:22;;;;;;;1.45;1.35;;;;;;;;;;5090738;28;20038;-76
2023/04/24 09:42:56;;;;;;;1.63;1.40;;;;;;;;;;5091035;28;20123;-77
2023/04/24 09:45:23;;;;;;;1.50;1.27;;;;;;;;;;5088135;28;20012;-76
2023/04/24 09:47:53;;;;;;;1.67;1.10;;;;;;;;;;5088220;28;20028;-75
2023/04/24 09:50:20;;;;;;;1.52;1.42;;;;;;;;;;5091029;28;20056;-76
2023/04/24 09:52:47;;;;;;;1.42;1.17;;;;;;;;;;5087219;28;20059;-77
2023/04/24 09:55:18;;;;;;;6.95;1.92;;;;;;;;;;5093011;28;20096;-76
2023/04/24 09:57:48;;;;;;;3.47;2.08;;;;;;;;;;5089119;28;20020;-76
2023/04/24 10:00:14;;;;;;;1.30;1.15;;;;;;;;;;5087179;28;20044;-77
2023/04/24 10:02:40;;;;;;;2.13;1.38;;;;;;;;;;5088910;28;20051;-77
2023/04/24 10:05:06;;;;;;;1.70;1.45;;;;;;;;;;5090579;28;20392;-76
2023/04/24 10:07:33;;;;;;;2.97;2.00;;;;;;;;;;5087119;28;20028;-75
2023/04/24 10:10:00;;;;;;;4.03;1.50;;;;;;;;;;5094438;28;20523;-75
2023/04/24 10:12:26;;;;;;;2.13;1.85;;;;;;;;;;5091107;28;20120;-76
2023/04/24 10:14:53;;;;;;;1.83;1.40;;;;;;;;;;5091271;28;20445;-76
2023/04/24 10:17:20;;;;;;;1.30;1.20;;;;;;;;;;5087763;28;20024;-76
2023/04/24 10:19:46;;;;;;;2.50;1.50;;;;;;;;;;5074796;28;20039;-75
2023/04/24 10:22:12;;;;;;;1.92;1.50;;;;;;;;;;5074966;28;20119;-75
2023/04/24 10:24:39;;;;;;;3.95;1.55;;;;;;;;;;5086479;28;20062;-76
2023/04/24 10:27:05;;;;;;;2.60;1.50;;;;;;;;;;5071160;28;20016;-76
2023/04/24 10:29:31;;;;;;;3.92;1.42;;;;;;;;;;5068963;28;20013;-77
2023/04/24 10:31:57;;;;;;;2.85;1.20;;;;;;;;;;5085597;28;20547;-77
2023/04/24 10:34:24;;;;;;;5.03;1.45;;;;;;;;;;5083644;28;20036;-76
2023/04/24 10:36:52;;;;;;;2.53;1.52;;;;;;;;;;5069590;28;20503;-75
2023/04/24 10:39:19;;;;;;;1.38;1.00;;;;;;;;;;5070704;28;20052;-75
2023/04/24 10:41:46;;;;;;;3.08;1.55;;;;;;;;;;5087619;28;20093;-76
2023/04/24 10:44:16;;;;;;;1.98;1.42;;;;;;;;;;5087571;28;20052;-75
2023/04/24 10:46:49;;;;;;;4.20;1.60;;;;;;;;;;5086054;28;20024;-76
2023/04/24 10:49:15;;;;;;;1.58;1.42;;;;;;;;;;5068843;28;20020;-76
2023/04/24 10:51:45;;;;;;;2.38;1.30;;;;;;;;;;5087751;28;20035;-76
2023/04/24 10:54:24;;;;;;;4.05;1.77;;;;;;;;;;5073714;28;20194;-76
2023/04/24 10:56:53;;;;;;;3.25;1.45;;;;;;;;;;5089324;28;20036;-76
2023/04/24 10:59:19;;;;;;;;;;;;;;;;;;5101193;28;20024;-76
2023/04/24 11:01:53;;;;;;;3.85;1.23;;;;;;;;;;5074696;28;19923;-76
2023/04/24 11:04:29;;;;;;;2.75;1.70;;;;;;;;;;5082769;28;20020;-76
2023/04/24 11:06:55;;;;;;;1.27;1.17;;;;;;;;;;5094878;28;20081;-75
2023/04/24 11:09:21;;;;;;;1.40;1.30;;;;;;;;;;5094401;28;20035;-76
2023/04/24 11:11:47;;;;;;;1.42;1.33;;;;;;;;;;5093741;28;20179;-75
2023/04/24 11:14:17;;;;;;;1.45;1.20;;;;;;;;;;5090287;28;20030;-75
2023/04/24 11:16:46;;;;;;;6.38;2.03;;;;;;;;;;5086513;28;20032;-75
2023/04/24 11:19:18;;;;;;;2.33;1.95;;;;;;;;;;5091113;28;20346;-75
2023/04/24 11:21:46;;;;;;;1.83;1.50;;;;;;;;;;5092278;28;20048;-75
2023/04/24 11:24:31;;;;;;;3.40;1.83;;;;;;;;;;5105691;28;20023;-75
2023/04/24 11:27:03;;;;;;;1.88;1.30;;;;;;;;;;5104644;28;20548;-75
2023/04/24 11:29:44;;;;;;;1.75;1.13;;;;;;;;;;5110350;28;20040;-75
2023/04/24 11:32:19;;;;;;;1.90;1.60;;;;;;;;;;5106660;28;20070;-76
2023/04/24 11:34:49;;;;;;;2.78;1.58;;;;;;;;;;5088668;28;20078;-73
2023/04/24 11:37:16;;;;;;;1.67;1.40;;;;;;;;;;5089709;28;20039;-75
2023/04/24 11:39:42;;;;;;;1.73;1.58;;;;;;;;;;5105364;28;20644;-76
2023/04/24 11:42:11;;;;;;;3.50;1.30;;;;;;;;;;5095832;28;20040;-76
2023/04/24 11:44:37;;;;;;;2.25;1.63;;;;;;;;;;5097698;28;20020;-78
2023/04/24 11:47:06;;;;;;;3.10;1.40;;;;;;;;;;5114401;28;20113;-76
2023/04/24 11:49:32;;;;;;;;;;;;;;;;;;5096679;28;20377;-78
2023/04/24 11:52:00;;;;;;;3.53;1.33;;;;;;;;;;5114405;28;19919;-77
2023/04/24 11:54:26;;;;;;;0.70;0.70;;;;;;;;;;5074998;28;20400;-78
2023/04/24 11:56:52;;;;;;;3.38;1.02;;;;;;;;;;5075289;28;20246;-78
2023/04/24 11:59:18;;;;;;;1.33;1.10;;;;;;;;;;5076132;28;20278;-77
2023/04/24 12:01:45;;;;;;;1.10;1.10;;;;;;;;;;5075069;28;20427;-78
2023/04/24 12:04:11;;;;;;;2.05;1.17;;;;;;;;;;5079675;28;20070;-76
2023/04/24 12:06:37;;;;;;;1.30;1.20;;;;;;;;;;5090133;28;20020;-78
2023/04/24 12:09:04;;;;;;;1.40;1.30;;;;;;;;;;5097664;28;20039;-78
2023/04/24 12:11:30;;;;;;;3.05;1.48;;;;;;;;;;5079154;28;20099;-76
2023/04/24 12:13:56;;;;;;;3.30;1.40;;;;;;;;;;5079786;28;20078;-75
2023/04/24 12:16:22;;;;;;;1.73;1.10;;;;;;;;;;5090373;28;20032;-77
2023/04/24 12:18:48;;;;;;;2.17;1.40;;;;;;;;;;5099542;28;20028;-77
2023/04/24 12:21:21;;;;;;;1.52;1.35;;;;;;;;;;5114151;28;20636;-77
2023/04/24 12:23:48;;;;;;;4.75;1.10;;;;;;;;;;5095523;28;20024;-78
2023/04/24 12:26:18;;;;;;;1.27;1.17;;;;;;;;;;5093911;28;20051;-78
2023/04/24 12:28:46;;;;;;;2.63;1.00;;;;;;;;;;5110260;28;20028;-77
2023/04/24 12:31:12;;;;;;;1.08;0.95;;;;;;;;;;5113203;28;20024;-77
2023/04/24 12:33:38;;;;;;;3.88;1.50;;;;;;;;;;5095475;28;20035;-77
2023/04/24 12:36:06;;;;;;;1.63;1.50;;;;;;;;;;5093531;28;20084;-77
2023/04/24 12:38:40;;;;;;;4.40;1.20;;;;;;;;;;5093625;28;20557;-75
2023/04/24 12:41:13;;;;;;;2.65;1.50;;;;;;;;;;5095466;28;20036;-77
2023/04/24 12:43:39;;;;;;;2.63;1.38;;;;;;;;;;5093842;28;20016;-76
2023/04/24 12:46:05;;;;;;;1.20;1.10;;;;;;;;;;5094690;28;20046;-76
2023/04/24 12:48:32;;;;;;;1.70;1.60;;;;;;;;;;5093213;28;20020;-77
2023/04/24 12:51:01;;;;;;;3.17;1.80;;;;;;;;;;5095089;28;20024;-77
2023/04/24 12:53:28;;;;;;;1.63;1.23;;;;;;;;;;5096864;28;20095;-77
2023/04/24 12:55:57;;;;;;;1.15;1.05;;;;;;;;;;5097273;28;20028;-77
2023/04/24 12:58:23;;;;;;;3.22;1.55;;;;;;;;;;5102550;28;20024;-77
2023/04/24 13:00:49;;;;;;;1.73;1.13;;;;;;;;;;5095938;28;20229;-77
2023/04/24 13:03:15;;;;;;;1.38;1.27;;;;;;;;;;5095282;28;20062;-77
2023/04/24 13:05:43;;;;;;;1.75;1.27;;;;;;;;;;5095827;28;20017;-77
2023/04/24 13:08:12;;;;;;;1.45;1.05;;;;;;;;;;5093032;28;20071;-77
2023/04/24 13:10:39;;;;;;;2.42;1.48;;;;;;;;;;5092431;28;20392;-77
2023/04/24 13:13:05;;;;;;;2.42;1.13;;;;;;;;;;5093623;28;20472;-77
2023/04/24 13:15:31;;;;;;;3.47;1.10;;;;;;;;;;5092781;28;20024;-77
2023/04/24 13:18:00;;;;;;;3.47;1.63;;;;;;;;;;5093223;28;20016;-77
2023/04/24 13:20:26;;;;;;;1.98;1.33;;;;;;;;;;5093516;28;20040;-77
2023/04/24 13:22:52;;;;;;;2.13;1.20;;;;;;;;;;5092902;28;20032;-76
2023/04/24 13:25:20;;;;;;;5.00;1.38;;;;;;;;;;5093277;28;20488;-77
2023/04/24 13:27:46;;;;;;;8.48;1.42;;;;;;;;;;5093802;28;20024;-77
2023/04/24 13:30:12;;;;;;;2.30;1.23;;;;;;;;;;5096410;28;20048;-75
2023/04/24 13:32:38;;;;;;;2.55;1.35;;;;;;;;;;5094775;28;20020;-77
2023/04/24 13:35:05;;;;;;;1.30;1.20;;;;;;;;;;5094964;28;20487;-76
2023/04/24 13:37:30;;;;;;;2.45;1.52;;;;;;;;;;5094469;28;20168;-76
2023/04/24 13:39:56;;;;;;;1.40;1.30;;;;;;;;;;5095646;28;20378;-79
2023/04/24 13:42:22;;;;;;;4.43;1.75;;;;;;;;;;5090418;28;20040;-76
2023/04/24 13:44:49;;;;;;;1.48;1.38;;;;;;;;;;5094250;28;20392;-76
2023/04/24 13:47:15;;;;;;;2.15;1.42;;;;;;;;;;5092649;28;20206;-76
2023/04/24 13:49:41;;;;;;;2.45;1.50;;;;;;;;;;5094200;28;20020;-76
2023/04/24 13:52:07;;;;;;;4.43;1.20;;;;;;;;;;5096668;28;20060;-78
2023/04/24 13:54:33;;;;;;;2.03;1.30;;;;;;;;;;5091688;28;20094;-75
2023/04/24 13:57:00;;;;;;;2.88;1.40;;;;;;;;;;5097080;28;20034;-77
2023/04/24 13:59:26;;;;;;;2.17;1.10;;;;;;;;;;5102369;28;20389;-77
2023/04/24 14:01:52;;;;;;;1.83;1.60;;;;;;;;;;5093542;28;20483;-77
2023/04/24 14:04:18;;;;;;;5.95;1.90;;;;;;;;;;5092745;28;20120;-77
2023/04/24 14:06:44;;;;;;;1.58;1.48;;;;;;;;;;5096771;28;20450;-77
2023/04/24 14:09:10;;;;;;;3.00;1.70;;;;;;;;;;5094965;28;20379;-77
2023/04/24 14:11:36;;;;;;;3.97;1.30;;;;;;;;;;5095153;28;20077;-75
2023/04/24 14:14:02;;;;;;;7.15;1.67;;;;;;;;;;5091435;28;20384;-79
2023/04/24 14:16:30;;;;;;;3.10;1.77;;;;;;;;;;5091438;28;20095;-77
2023/04/24 14:18:56;;;;;;;4.15;1.60;;;;;;;;;;5089640;28;20044;-76
2023/04/24 14:21:22;;;;;;;2.45;1.50;;;;;;;;;;5090664;28;20055;-77
2023/04/24 14:23:50;;;;;;;2.47;1.45;;;;;;;;;;5088080;28;20044;-78
2023/04/24 14:26:16;;;;;;;2.67;1.33;;;;;;;;;;5094420;28;20109;-77
2023/04/24 14:28:42;;;;;;;5.97;1.50;;;;;;;;;;5088497;28;20029;-78
2023/04/24 14:31:08;;;;;;;3.33;1.27;;;;;;;;;;5106367;28;20139;-76
2023/04/24 14:33:35;;;;;;;3.88;1.40;;;;;;;;;;5109582;28;20028;-75
2023/04/24 14:36:02;;;;;;;1.08;1.08;;;;;;;;;;5091629;28;20024;-76
2023/04/24 14:38:29;;;;;;;3.88;1.38;;;;;;;;;;5074976;28;20043;-78
2023/04/24 14:40:55;;;;;;;4.65;1.48;;;;;;;;;;5072758;28;20436;-78